Latest Weather Observations for Port Fairy

IDV60801

Issued at 6:35 am EDT Tuesday 25 November 2014 (issued every 30 minutes, with the page automatically refreshed every 10 minutes)

About weather observations | Map of weather stations | Latest weather observations for VIC | Other Formats
Station Details ID: 090175 Name: PORT FAIRY AWS Lat: -38.39 Lon: 142.23 Height: 10.0 m
Data from the previous 72 hours. | See also: Recent months at Port Fairy
Date/Time
EDT
Temp
°C
App
Temp
°C
Dew
Point
Rel
Hum
%
Delta-T
°C
Wind Press
QNH
hPa
Press
MSL
hPa
Rain
since 9 am
mm
Dir
 
Spd
km/h
Gust
km/h
Spd
kts
Gust
kts
25/06:30am 14.0 7.0 8.6 70 2.7 WSW 35 44 19 24 1016.7 1016.7 0.8
25/06:00am 13.9 7.3 8.5 70 2.7 WSW 33 46 18 25 1016.1 1016.1 0.8
25/05:30am 13.5 6.2 8.6 72 2.5 WSW 37 44 20 24 1015.8 1015.8 0.8
25/05:00am 14.1 6.9 9.1 72 2.5 WSW 37 46 20 25 1015.5 1015.5 0.8
25/04:30am 13.5 6.6 8.8 73 2.4 WSW 35 46 19 25 1015.3 1015.3 0.8
25/04:00am 13.6 5.7 9.3 75 2.2 WSW 41 50 22 27 1015.2 1015.2 0.8
25/03:30am 12.7 5.8 8.8 77 2.0 W 35 46 19 25 1015.2 1015.2 0.8
25/03:00am 13.5 6.4 9.7 78 1.9 WSW 37 50 20 27 1015.1 1015.1 0.8
25/02:30am 13.4 6.9 9.1 75 2.2 W 33 46 18 25 1015.0 1015.0 0.8
25/02:08am 13.2 7.7 9.3 77 2.0 W 28 50 15 27 1015.0 1015.0 0.8
25/02:00am 12.9 6.9 8.8 76 2.1 W 30 43 16 23 1015.0 1015.0 0.8
25/01:31am 14.0 7.5 9.0 72 2.5 W 33 52 18 28 1014.9 1014.9 0.6
25/01:30am 13.8 7.4 8.6 71 2.6 W 32 46 17 25 1014.8 1014.8 0.6
25/01:00am 13.7 7.0 8.3 70 2.7 W 33 46 18 25 1014.7 1014.7 0.6
25/12:30am 13.6 7.1 8.0 69 2.8 W 32 43 17 23 1014.6 1014.6 0.6
25/12:00am 13.8 7.2 8.4 70 2.7 W 33 46 18 25 1014.5 1014.5 0.6
 
Date/Time
EDT
Temp
°C
App
Temp
°C
Dew
Point
Rel
Hum
%
Delta-T
°C
Wind Press
QNH
hPa
Press
MSL
hPa
Rain
since 9 am
mm
Dir
 
Spd
km/h
Gust
km/h
Spd
kts
Gust
kts
24/11:30pm 13.2 6.5 8.3 72 2.4 W 33 48 18 26 1014.4 1014.4 0.6
24/11:00pm 13.6 7.4 7.8 68 2.9 W 30 43 16 23 1014.2 1014.2 0.6
24/10:30pm 13.4 7.8 7.2 66 3.0 W 26 41 14 22 1014.1 1014.1 0.6
24/10:00pm 14.0 7.3 8.0 67 3.0 W 33 50 18 27 1013.9 1013.9 0.6
24/09:50pm 14.1 7.8 7.6 65 3.2 W 30 48 16 26 1013.7 1013.7 0.6
24/09:30pm 13.9 6.9 6.7 62 3.5 W 33 48 18 26 1013.5 1013.5 0.6
24/09:00pm 14.1 6.8 7.4 64 3.3 W 35 50 19 27 1013.3 1013.3 0.6
24/08:30pm 14.2 7.2 6.8 61 3.6 W 33 44 18 24 1013.0 1013.0 0.6
24/08:00pm 14.7 7.1 7.5 62 3.6 WSW 37 50 20 27 1012.5 1012.5 0.6
24/07:30pm 15.3 8.0 8.8 65 3.3 WSW 37 52 20 28 1011.9 1011.9 0.6
24/07:00pm 15.7 8.0 8.7 63 3.6 W 39 56 21 30 1011.2 1011.2 0.6
24/06:52pm 16.0 8.5 9.4 65 3.4 WSW 39 57 21 31 1011.0 1011.0 0.6
24/06:30pm 15.4 7.4 8.9 65 3.3 WSW 41 54 22 29 1010.6 1010.6 0.6
24/06:00pm 15.4 7.5 9.5 68 3.1 WSW 41 52 22 28 1010.3 1010.3 0.6
24/05:30pm 16.6 9.3 10.2 66 3.4 WSW 39 52 21 28 1010.1 1010.1 0.6
24/05:00pm 16.2 9.0 10.5 69 3.0 WSW 39 48 21 26 1010.0 1010.0 0.6
24/04:30pm 16.0 9.4 11.4 74 2.5 WSW 37 48 20 26 1009.8 1009.8 0.6
24/04:00pm 15.6 11.7 12.2 80 1.9 W 24 35 13 19 1009.8 1009.8 0.6
24/03:30pm 14.6 10.6 11.9 84 1.5 WSW 24 30 13 16 1009.8 1009.8 0.6
24/03:00pm 13.0 7.7 11.1 88 1.0 W 30 43 16 23 1010.0 1010.0 0.6
24/02:30pm 13.2 5.9 11.6 90 0.9 WSW 41 54 22 29 1009.9 1009.9 0.6
24/02:00pm 14.4 7.6 12.1 86 1.2 SW 39 52 21 28 1009.6 1009.6 0.4
24/01:49pm 15.9 10.4 12.5 80 1.9 WSW 33 50 18 27 1009.4 1009.4 0.4
24/01:30pm 18.4 16.0 14.5 78 2.3 WSW 20 26 11 14 1009.1 1009.1 0.4
24/01:00pm 18.0 15.4 13.7 76 2.4 WSW 20 26 11 14 1009.0 1009.0 0.4
24/12:30pm 17.8 16.3 14.3 80 2.0 WSW 15 22 8 12 1008.9 1008.9 0.4
24/12:00pm 16.8 16.7 13.9 83 1.6 W 7 11 4 6 1008.9 1008.9 0.4
24/11:30am 16.2 16.0 13.5 84 1.5 W 7 9 4 5 1009.1 1009.1 0.4
24/11:00am 16.1 15.6 12.8 81 1.8 W 7 9 4 5 1009.1 1009.1 0.4
24/10:30am 16.4 15.8 13.5 83 1.6 WSW 9 15 5 8 1008.7 1008.7 0.4
24/10:00am 16.1 16.5 12.5 79 2.0 ENE 2 6 1 3 1008.6 1008.6 0.0
24/09:30am 15.6 16.4 12.4 81 1.8 CALM 0 0 0 0 1008.9 1008.9 0.0
24/09:00am 15.3 15.7 12.4 83 1.6 SSW 2 6 1 3 1008.6 1008.6 1.0
24/08:30am 14.9 15.6 12.2 84 1.5 CALM 0 0 0 0 1008.6 1008.6 1.0
24/08:00am 14.4 13.0 11.0 80 1.8 NE 9 13 5 7 1009.2 1009.2 1.0
24/07:30am 15.3 13.8 10.5 73 2.5 ENE 9 13 5 7 1008.6 1008.6 0.0
24/07:00am 15.1 14.0 10.7 75 2.3 ENE 7 13 4 7 1008.9 1008.9 0.0
24/06:30am 14.8 13.2 10.2 74 2.4 NE 9 19 5 10 1008.6 1008.6 0.0
24/06:00am 14.6 12.9 9.8 73 2.5 NNE 9 13 5 7 1008.5 1008.5 0.0
24/05:30am 15.5 14.3 10.3 71 2.7 ENE 7 15 4 8 1008.4 1008.4 0.0
24/05:00am 15.6 13.3 10.4 71 2.7 ENE 13 22 7 12 1007.9 1007.9 0.0
24/04:30am 15.5 13.1 10.1 70 2.8 ENE 13 20 7 11 1008.1 1008.1 0.0
24/04:00am 15.3 13.5 10.7 74 2.4 E 11 17 6 9 1008.7 1008.7 0.0
24/03:30am 15.4 13.7 11.2 76 2.2 ENE 11 19 6 10 1008.7 1008.7 0.0
24/03:00am 15.2 13.9 11.4 78 2.0 ENE 9 13 5 7 1009.2 1009.2 0.0
24/02:30am 14.8 13.8 11.0 78 2.0 ENE 7 13 4 7 1009.8 1009.8 0.0
24/02:00am 15.5 14.9 11.7 78 2.1 E 6 9 3 5 1010.1 1010.1 0.0
24/01:30am 15.4 14.8 11.8 79 1.9 ENE 6 7 3 4 1011.1 1011.1 0.0
24/01:00am 15.4 14.8 11.8 79 1.9 ENE 6 9 3 5 1011.2 1011.2 0.0
24/12:30am 15.2 14.9 11.6 79 1.9 ENE 4 7 2 4 1012.0 1012.0 0.0
24/12:00am 15.4 14.8 11.8 79 1.9 ENE 6 11 3 6 1012.3 1012.3 0.0
 
Date/Time
EDT
Temp
°C
App
Temp
°C
Dew
Point
Rel
Hum
%
Delta-T
°C
Wind Press
QNH
hPa
Press
MSL
hPa
Rain
since 9 am
mm
Dir
 
Spd
km/h
Gust
km/h
Spd
kts
Gust
kts
23/11:30pm 15.5 14.5 12.4 82 1.7 ENE 9 13 5 7 1012.5 1012.5 0.0
23/11:00pm 15.7 14.5 12.8 83 1.6 ENE 11 19 6 10 1012.7 1012.7 0.0
23/10:30pm 15.7 15.3 12.5 81 1.8 E 6 9 3 5 1013.2 1013.2 0.0
23/10:00pm 15.4 14.7 12.0 80 1.8 E 7 9 4 5 1012.9 1012.9 0.0
23/09:30pm 15.4 14.7 12.0 80 1.8 E 7 11 4 6 1012.4 1012.4 0.0
23/09:00pm 15.4 14.8 11.6 78 2.0 ESE 6 7 3 4 1013.0 1013.0 0.0
23/08:30pm 16.0 15.3 12.0 77 2.2 SE 7 11 4 6 1012.6 1012.6 0.0
23/08:00pm 16.4 15.8 12.2 76 2.3 SE 7 11 4 6 1012.4 1012.4 0.0
23/07:30pm 16.8 15.8 12.3 75 2.5 SE 9 13 5 7 1012.2 1012.2 0.0
23/07:00pm 18.1 16.5 12.8 71 3.0 SSE 13 17 7 9 1011.4 1011.4 0.0
23/06:30pm 17.9 16.3 12.8 72 2.8 SSE 13 15 7 8 1011.9 1011.9 0.0
23/06:00pm 17.9 16.8 13.2 74 2.6 S 11 15 6 8 1012.5 1012.5 0.0
23/05:30pm 17.3 16.0 12.6 74 2.6 S 11 13 6 7 1012.8 1012.8 0.0
23/05:00pm 17.7 16.6 13.0 74 2.6 S 11 15 6 8 1012.6 1012.6 0.0
23/04:30pm 17.5 16.2 12.6 73 2.7 S 11 15 6 8 1012.3 1012.3 0.0
23/04:00pm 18.1 16.9 12.8 71 3.0 S 11 15 6 8 1012.4 1012.4 0.0
23/03:30pm 18.1 16.8 12.5 70 3.1 S 11 15 6 8 1012.4 1012.4 0.0
23/03:00pm 18.5 16.5 12.7 69 3.2 S 15 19 8 10 1012.3 1012.3 0.0
23/02:30pm 19.2 17.7 13.2 68 3.4 S 13 17 7 9 1012.3 1012.3 0.0
23/02:00pm 19.3 17.6 13.5 69 3.3 S 15 19 8 10 1012.4 1012.4 0.0
23/01:30pm 18.7 17.3 13.3 71 3.1 S 13 17 7 9 1012.3 1012.3 0.0
23/01:00pm 18.7 17.4 13.6 72 2.9 S 13 19 7 10 1012.1 1012.1 0.0
23/12:30pm 18.7 17.4 13.8 73 2.8 S 13 19 7 10 1012.1 1012.1 0.0
23/12:00pm 18.2 17.3 13.7 75 2.6 S 11 15 6 8 1012.5 1012.5 0.0
23/11:30am 18.2 17.4 13.9 76 2.5 S 11 15 6 8 1012.6 1012.6 0.0
23/11:00am 17.9 17.5 14.2 79 2.1 S 9 11 5 6 1012.7 1012.7 0.0
23/10:30am 18.1 18.4 15.0 82 1.8 S 7 11 4 6 1013.0 1013.0 0.0
23/10:00am 17.2 18.0 14.7 85 1.4 NNW 4 7 2 4 1013.2 1013.2 0.0
23/09:30am 16.1 16.6 15.0 93 0.6 N 6 11 3 6 1013.3 1013.3 0.0
23/09:00am 14.6 13.8 14.0 96 0.3 NNW 11 17 6 9 1013.3 1013.3 0.0
23/08:30am 13.4 12.6 12.9 97 0.3 NNW 9 15 5 8 1012.9 1012.9 0.0
23/08:00am 12.5 11.4 11.9 96 0.3 N 9 15 5 8 1012.6 1012.6 0.0
23/07:30am 11.0 9.8 10.4 96 0.3 NNW 7 11 4 6 1012.2 1012.2 0.0
23/07:00am 9.9 8.1 9.3 96 0.3 NNW 9 13 5 7 1011.9 1011.9 0.0
23/06:30am 9.0 7.3 8.2 95 0.4 N 7 11 4 6 1011.7 1011.7 0.0
23/06:00am 9.2 7.7 8.3 94 0.4 NNW 6 7 3 4 1011.2 1011.2 0.0
23/05:30am 9.3 7.8 8.4 94 0.4 NNW 6 9 3 5 1010.9 1010.9 0.0
23/05:00am 9.8 8.2 8.7 93 0.5 N 7 9 4 5 1010.6 1010.6 0.0
23/04:30am 10.1 8.7 9.0 93 0.5 N 6 6 3 3 1010.5 1010.5 0.0
23/04:00am 11.2 10.1 10.1 93 0.6 NNW 6 7 3 4 1010.3 1010.3 0.0
23/03:30am 11.6 10.6 10.3 92 0.7 NW 6 9 3 5 1010.4 1010.4 0.0
23/03:00am 11.9 11.0 10.6 92 0.7 NW 6 7 3 4 1010.5 1010.5 0.0
23/02:30am 12.2 11.7 10.8 91 0.7 NNW 4 7 2 4 1010.5 1010.5 0.0
23/02:00am 11.5 10.4 9.9 90 0.8 NW 6 7 3 4 1010.7 1010.7 0.0
23/01:30am 12.2 11.6 10.4 89 0.9 NNW 4 7 2 4 1010.7 1010.7 0.0
23/01:00am 13.3 12.6 11.4 88 1.0 NW 6 7 3 4 1010.6 1010.6 0.0
23/12:30am 14.2 13.1 12.1 87 1.1 W 9 13 5 7 1010.6 1010.6 0.0
23/12:00am 14.8 12.8 12.7 87 1.2 W 15 20 8 11 1010.5 1010.5 0.0
 
Date/Time
EDT
Temp
°C
App
Temp
°C
Dew
Point
Rel
Hum
%
Delta-T
°C
Wind Press
QNH
hPa
Press
MSL
hPa
Rain
since 9 am
mm
Dir
 
Spd
km/h
Gust
km/h
Spd
kts
Gust
kts
22/11:30pm 14.9 12.6 12.9 88 1.1 WSW 17 20 9 11 1010.4 1010.4 0.0
22/11:00pm 15.0 13.8 12.9 87 1.2 W 11 17 6 9 1010.3 1010.3 0.0
22/10:30pm 15.3 13.5 13.2 87 1.2 WSW 15 20 8 11 1010.2 1010.2 0.0
22/10:00pm 15.8 14.9 13.6 87 1.2 W 11 15 6 8 1009.8 1009.8 0.0
22/09:30pm 16.1 13.7 13.9 87 1.2 WSW 19 24 10 13 1009.2 1009.2 0.0
22/09:00pm 16.4 14.4 13.9 85 1.4 W 17 22 9 12 1008.7 1008.7 0.0
22/08:30pm 16.6 14.5 13.7 83 1.6 WSW 17 22 9 12 1007.9 1007.9 0.0
22/08:00pm 16.9 13.1 13.6 81 1.9 WSW 26 32 14 17 1007.2 1007.2 0.0
22/07:30pm 17.5 13.0 13.8 79 2.1 WSW 30 37 16 20 1006.4 1006.4 0.0
22/07:00pm 17.7 12.3 14.0 79 2.1 WSW 35 46 19 25 1006.0 1006.0 0.0
22/06:30pm 18.4 12.3 14.1 76 2.5 WSW 39 52 21 28 1005.5 1005.5 0.0
22/06:00pm 19.4 13.4 14.4 73 2.9 WSW 39 48 21 26 1005.1 1005.1 0.0
22/05:30pm 20.4 14.7 14.3 68 3.5 WSW 37 46 20 25 1004.5 1004.5 0.0
22/05:00pm 21.6 18.5 14.5 64 4.2 WSW 24 43 13 23 1004.1 1004.1 0.0
22/04:30pm 21.9 18.0 14.3 62 4.4 WSW 28 37 15 20 1004.1 1004.1 0.0
22/04:00pm 22.4 17.9 13.7 58 5.1 WSW 30 39 16 21 1004.1 1004.1 0.0
22/03:30pm 25.5 20.5 9.7 37 8.7 WSW 26 39 14 21 1004.0 1004.0 0.0
22/03:29pm 25.9 20.6 9.7 36 8.9 WSW 28 39 15 21 1004.1 1004.1 0.0
22/03:04pm 31.5 26.2 9.7 26 12.4 NNW 28 54 15 29 1003.6 1003.6 0.0
22/03:00pm 31.3 26.3 9.5 26 12.3 NW 26 50 14 27 1003.6 1003.6 0.0
22/02:30pm 30.7 24.4 9.0 26 12.1 NNW 32 54 17 29 1003.9 1003.9 0.0
22/02:00pm 31.0 25.0 8.7 25 12.4 NNW 30 54 16 29 1004.0 1004.0 0.0
22/01:30pm 31.1 24.6 8.8 25 12.4 NNW 33 56 18 30 1004.3 1004.3 0.0
22/01:00pm 29.2 23.5 8.3 27 11.5 NNW 28 52 15 28 1004.8 1004.8 0.0
22/12:58pm 29.0 23.2 8.1 27 11.4 NNW 28 52 15 28 1004.8 1004.8 0.0
22/12:30pm 28.3 23.2 9.1 30 10.6 N 26 44 14 24 1005.1 1005.1 0.0
22/12:14pm 28.3 22.9 9.6 31 10.4 N 28 50 15 27 1005.3 1005.3 0.0
22/12:00pm 28.1 23.6 9.9 32 10.2 N 24 46 13 25 1005.6 1005.6 0.0
22/11:30am 25.4 21.6 11.2 41 8.0 N 22 37 12 20 1006.0 1006.0 0.0
22/11:00am 24.3 19.3 10.9 43 7.5 N 28 41 15 22 1006.7 1006.7 0.0
22/10:30am 22.6 19.2 10.7 47 6.6 N 19 28 10 15 1006.7 1006.7 0.0
22/10:00am 21.3 19.2 12.4 57 5.0 N 15 30 8 16 1007.6 1007.6 0.0
22/09:30am 19.8 17.8 12.6 63 4.0 N 15 24 8 13 1008.0 1008.0 0.0
22/09:00am 18.1 16.8 13.8 76 2.5 NNE 13 24 7 13 1007.3 1007.3 0.6
22/08:30am 14.9 14.4 12.8 87 1.2 NE 7 9 4 5 1007.4 1007.4 0.6
22/08:00am 14.0 12.2 12.2 89 1.0 NE 13 19 7 10 1007.3 1007.3 0.6
22/07:30am 12.4 11.3 10.8 90 0.8 NE 7 13 4 7 1007.9 1007.9 0.6
22/07:00am 12.1 9.8 10.3 89 0.9 NNE 13 28 7 15 1007.2 1007.2 0.6

Other Formats:

Comma delimited format used in spreadsheet applications
http://www.bom.gov.au/fwo/IDV60801/IDV60801.94830.axf

JavaScript Object Notation format (JSON) in row-major order
http://www.bom.gov.au/fwo/IDV60801/IDV60801.94830.json